createdAt,value
2022-12-08T00:00:01.604Z,1005.83
2022-12-08T00:00:11.005Z,1005.84
2022-12-08T00:00:20.420Z,1005.85
2022-12-08T00:00:29.824Z,1005.82
2022-12-08T00:00:48.683Z,1005.81
2022-12-08T00:00:58.064Z,1005.85
2022-12-08T00:01:07.477Z,1005.84
2022-12-08T00:01:16.941Z,1005.82
2022-12-08T00:01:26.350Z,1005.88
2022-12-08T00:01:35.870Z,1005.82
2022-12-08T00:01:45.299Z,1005.84
2022-12-08T00:01:54.803Z,1005.83
2022-12-08T00:02:04.242Z,1005.83
2022-12-08T00:02:13.674Z,1005.83
2022-12-08T00:02:23.031Z,1005.78
2022-12-08T00:02:32.513Z,1005.79
2022-12-08T00:02:41.820Z,1005.83
2022-12-08T00:02:51.204Z,1005.85
2022-12-08T00:03:00.795Z,1005.80
2022-12-08T00:03:10.089Z,1005.79
2022-12-08T00:03:28.934Z,1005.83
2022-12-08T00:03:38.280Z,1005.84
2022-12-08T00:03:47.598Z,1005.85
2022-12-08T00:03:57.055Z,1005.83
2022-12-08T00:04:06.467Z,1005.83
2022-12-08T00:04:15.891Z,1005.80
2022-12-08T00:04:25.304Z,1005.83
2022-12-08T00:04:34.704Z,1005.79
2022-12-08T00:04:44.165Z,1005.79
2022-12-08T00:04:53.570Z,1005.83
2022-12-08T00:05:03.335Z,1005.79
2022-12-08T00:05:12.423Z,1005.87
2022-12-08T00:05:21.873Z,1005.80
2022-12-08T00:05:31.371Z,1005.85
2022-12-08T00:05:40.790Z,1005.83
2022-12-08T00:05:50.276Z,1005.80
2022-12-08T00:05:59.693Z,1005.74
2022-12-08T00:06:18.551Z,1005.81
2022-12-08T00:06:27.963Z,1005.90
2022-12-08T00:06:37.377Z,1005.83
2022-12-08T00:06:46.797Z,1005.75
2022-12-08T00:06:56.222Z,1005.81
2022-12-08T00:07:05.636Z,1005.86
2022-12-08T00:07:15.062Z,1005.89
2022-12-08T00:07:24.498Z,1005.88
2022-12-08T00:07:33.949Z,1005.84
2022-12-08T00:07:43.426Z,1005.87
2022-12-08T00:07:52.881Z,1005.86
2022-12-08T00:08:02.284Z,1005.87
2022-12-08T00:08:11.725Z,1005.84
2022-12-08T00:08:21.131Z,1005.83
2022-12-08T00:08:30.464Z,1005.86
2022-12-08T00:08:39.886Z,1005.79
2022-12-08T00:08:58.730Z,1005.84
2022-12-08T00:09:08.152Z,1005.76
2022-12-08T00:09:17.610Z,1005.81
2022-12-08T00:09:27.040Z,1005.80
2022-12-08T00:09:39.075Z,1005.81
2022-12-08T00:09:45.834Z,1005.78
2022-12-08T00:09:55.253Z,1005.81
2022-12-08T00:10:25.294Z,1005.78
2022-12-08T00:10:46.539Z,1005.80
2022-12-08T00:10:48.061Z,1005.80
2022-12-08T00:10:48.952Z,1005.82
2022-12-08T00:10:50.277Z,1005.86
2022-12-08T00:10:52.116Z,1005.79
2022-12-08T00:11:01.514Z,1005.75
2022-12-08T00:11:10.921Z,1005.81
2022-12-08T00:11:20.355Z,1005.82
2022-12-08T00:11:29.835Z,1005.83
2022-12-08T00:11:48.674Z,1005.81
2022-12-08T00:11:58.102Z,1005.80
2022-12-08T00:12:07.517Z,1005.82
2022-12-08T00:12:16.945Z,1005.78
2022-12-08T00:12:26.592Z,1005.80
2022-12-08T00:12:36.039Z,1005.87
2022-12-08T00:12:45.471Z,1005.84
2022-12-08T00:12:54.865Z,1005.83
2022-12-08T00:13:04.261Z,1005.89
2022-12-08T00:13:13.655Z,1005.85
2022-12-08T00:13:23.064Z,1005.81
2022-12-08T00:13:32.481Z,1005.89
2022-12-08T00:13:41.896Z,1005.85
2022-12-08T00:13:51.401Z,1005.88
2022-12-08T00:14:00.849Z,1005.89
2022-12-08T00:14:10.242Z,1005.92
2022-12-08T00:14:19.651Z,1005.89
2022-12-08T00:14:38.453Z,1005.84
2022-12-08T00:14:47.877Z,1005.90
2022-12-08T00:14:57.271Z,1005.89
2022-12-08T00:15:06.802Z,1005.90
2022-12-08T00:15:16.111Z,1005.88
2022-12-08T00:15:25.506Z,1005.92
2022-12-08T00:15:34.893Z,1005.87
2022-12-08T00:15:44.300Z,1005.86
2022-12-08T00:15:53.699Z,1005.88
2022-12-08T00:16:03.085Z,1005.86
2022-12-08T00:16:12.556Z,1005.84
2022-12-08T00:16:21.974Z,1005.93
2022-12-08T00:16:31.382Z,1005.90
2022-12-08T00:16:40.825Z,1005.81
2022-12-08T00:16:50.197Z,1005.90
2022-12-08T00:16:59.617Z,1005.89
2022-12-08T00:17:18.403Z,1005.92
2022-12-08T00:17:27.855Z,1005.91
2022-12-08T00:17:37.268Z,1005.94
2022-12-08T00:17:46.705Z,1005.80
2022-12-08T00:17:56.093Z,1005.80
2022-12-08T00:18:05.517Z,1005.86
2022-12-08T00:18:14.905Z,1005.90
2022-12-08T00:18:24.290Z,1005.83
2022-12-08T00:18:33.670Z,1005.87
2022-12-08T00:18:43.090Z,1005.87
2022-12-08T00:18:52.510Z,1005.82
2022-12-08T00:19:01.932Z,1005.81
2022-12-08T00:19:11.398Z,1005.84
2022-12-08T00:19:20.817Z,1005.86
2022-12-08T00:19:30.237Z,1005.83
2022-12-08T00:19:39.657Z,1005.80
2022-12-08T00:19:58.467Z,1005.86
2022-12-08T00:20:07.881Z,1005.86
2022-12-08T00:20:17.274Z,1005.79
2022-12-08T00:20:26.814Z,1005.83
2022-12-08T00:20:36.220Z,1005.87
2022-12-08T00:20:45.623Z,1005.81
2022-12-08T00:20:55.035Z,1005.81
2022-12-08T00:21:04.446Z,1005.89
2022-12-08T00:21:13.829Z,1005.82
2022-12-08T00:21:23.242Z,1005.74
2022-12-08T00:21:32.635Z,1005.82
2022-12-08T00:21:42.040Z,1005.79
2022-12-08T00:21:51.451Z,1005.87
2022-12-08T00:22:00.854Z,1005.80
2022-12-08T00:22:10.251Z,1005.89
2022-12-08T00:22:19.623Z,1005.83
2022-12-08T00:22:38.438Z,1005.88
2022-12-08T00:22:47.846Z,1005.84
2022-12-08T00:22:57.253Z,1005.86
2022-12-08T00:23:06.691Z,1005.90
2022-12-08T00:23:16.113Z,1005.84
2022-12-08T00:23:25.515Z,1005.89
2022-12-08T00:23:34.923Z,1005.90
2022-12-08T00:23:44.391Z,1005.88
2022-12-08T00:23:53.813Z,1005.91
2022-12-08T00:24:03.234Z,1005.92
2022-12-08T00:24:12.659Z,1005.90
2022-12-08T00:24:22.099Z,1005.82
2022-12-08T00:24:31.524Z,1005.91
2022-12-08T00:24:40.896Z,1005.85
2022-12-08T00:24:50.284Z,1005.83
2022-12-08T00:24:59.692Z,1005.83
2022-12-08T00:25:18.564Z,1005.86
2022-12-08T00:25:28.013Z,1005.90
2022-12-08T00:25:37.466Z,1005.82
2022-12-08T00:25:46.852Z,1005.94
2022-12-08T00:25:56.264Z,1005.81
2022-12-08T00:26:05.670Z,1005.86
2022-12-08T00:26:15.093Z,1005.81
2022-12-08T00:26:24.550Z,1005.90
2022-12-08T00:26:33.938Z,1005.88
2022-12-08T00:26:43.356Z,1005.81
2022-12-08T00:26:52.823Z,1005.81
2022-12-08T00:27:02.231Z,1005.85
2022-12-08T00:27:11.648Z,1005.77
2022-12-08T00:27:21.022Z,1005.86
2022-12-08T00:27:30.456Z,1005.93
2022-12-08T00:27:39.877Z,1005.80
2022-12-08T00:27:58.753Z,1005.85
2022-12-08T00:28:08.140Z,1005.77
2022-12-08T00:28:17.547Z,1005.80
2022-12-08T00:28:26.945Z,1005.76
2022-12-08T00:28:36.346Z,1005.77
2022-12-08T00:28:45.793Z,1005.83
2022-12-08T00:28:55.178Z,1005.80
2022-12-08T00:29:04.602Z,1005.81
2022-12-08T00:29:17.295Z,1005.85
2022-12-08T00:29:23.403Z,1005.79
2022-12-08T00:29:32.828Z,1005.80
2022-12-08T00:29:42.246Z,1005.79
2022-12-08T00:29:51.638Z,1005.80
2022-12-08T00:30:01.025Z,1005.82
2022-12-08T00:30:10.441Z,1005.85
2022-12-08T00:30:19.929Z,1005.78
2022-12-08T00:30:38.809Z,1005.82
2022-12-08T00:30:48.251Z,1005.81
2022-12-08T00:30:57.668Z,1005.76
2022-12-08T00:31:07.069Z,1005.79
2022-12-08T00:31:16.558Z,1005.83
2022-12-08T00:31:25.978Z,1005.76
2022-12-08T00:31:35.411Z,1005.74
2022-12-08T00:31:44.829Z,1005.80
2022-12-08T00:31:54.271Z,1005.77
2022-12-08T00:32:03.614Z,1005.73
2022-12-08T00:32:13.110Z,1005.80
2022-12-08T00:32:22.471Z,1005.80
2022-12-08T00:32:31.827Z,1005.76
2022-12-08T00:32:41.237Z,1005.76
2022-12-08T00:32:50.673Z,1005.76
2022-12-08T00:33:00.122Z,1005.84
2022-12-08T00:33:09.544Z,1005.77
2022-12-08T00:33:28.392Z,1005.76
2022-12-08T00:33:37.828Z,1005.80
2022-12-08T00:33:47.232Z,1005.75
2022-12-08T00:33:56.644Z,1005.82
2022-12-08T00:34:06.047Z,1005.73
2022-12-08T00:34:15.527Z,1005.82
2022-12-08T00:34:24.930Z,1005.78
2022-12-08T00:34:34.326Z,1005.81
2022-12-08T00:34:43.754Z,1005.84
2022-12-08T00:34:53.145Z,1005.84
2022-12-08T00:35:02.939Z,1005.82
2022-12-08T00:35:11.942Z,1005.83
2022-12-08T00:35:21.426Z,1005.79
2022-12-08T00:35:30.854Z,1005.81
2022-12-08T00:35:43.256Z,1005.76
2022-12-08T00:35:49.695Z,1005.88
2022-12-08T00:36:08.489Z,1005.84
2022-12-08T00:36:17.914Z,1005.88
2022-12-08T00:36:27.307Z,1005.86
2022-12-08T00:36:36.735Z,1005.85
2022-12-08T00:36:46.168Z,1005.81
2022-12-08T00:36:55.585Z,1005.78
2022-12-08T00:37:05.012Z,1005.83
2022-12-08T00:37:14.444Z,1005.93
2022-12-08T00:37:23.839Z,1005.84
2022-12-08T00:37:33.234Z,1005.83
2022-12-08T00:37:42.640Z,1005.87
2022-12-08T00:37:55.013Z,1005.85
2022-12-08T00:38:01.502Z,1005.84
2022-12-08T00:38:10.904Z,1005.78
2022-12-08T00:38:20.295Z,1005.87
2022-12-08T00:38:29.717Z,1005.86
2022-12-08T00:38:48.592Z,1005.88
2022-12-08T00:38:58.025Z,1005.80
2022-12-08T00:39:07.413Z,1005.86
2022-12-08T00:39:16.824Z,1005.83
2022-12-08T00:39:26.238Z,1005.86
2022-12-08T00:39:35.692Z,1005.80
2022-12-08T00:39:45.096Z,1005.86
2022-12-08T00:39:54.518Z,1005.86
2022-12-08T00:40:04.440Z,1005.85
2022-12-08T00:40:13.386Z,1005.85
2022-12-08T00:40:22.804Z,1005.82
2022-12-08T00:40:32.272Z,1005.85
2022-12-08T00:40:41.679Z,1005.78
2022-12-08T00:40:51.070Z,1005.85
2022-12-08T00:41:00.459Z,1005.83
2022-12-08T00:41:09.855Z,1005.80
2022-12-08T00:41:28.709Z,1005.80
2022-12-08T00:41:38.122Z,1005.73
2022-12-08T00:41:47.526Z,1005.84
2022-12-08T00:41:56.932Z,1005.75
2022-12-08T00:42:06.330Z,1005.82
2022-12-08T00:42:15.757Z,1005.82
2022-12-08T00:42:25.148Z,1005.83
2022-12-08T00:42:34.593Z,1005.79
2022-12-08T00:42:44.016Z,1005.81
2022-12-08T00:42:53.467Z,1005.86
2022-12-08T00:43:02.926Z,1005.80
2022-12-08T00:43:12.333Z,1005.77
2022-12-08T00:43:21.767Z,1005.81
2022-12-08T00:43:31.204Z,1005.80
2022-12-08T00:43:40.643Z,1005.82
2022-12-08T00:43:50.065Z,1005.89
2022-12-08T00:43:59.504Z,1005.87
2022-12-08T00:44:18.401Z,1005.83
2022-12-08T00:44:27.818Z,1005.83
2022-12-08T00:44:37.230Z,1005.88
2022-12-08T00:44:46.659Z,1005.83
2022-12-08T00:44:56.072Z,1005.80
2022-12-08T00:45:05.506Z,1005.82
2022-12-08T00:45:14.933Z,1005.84
2022-12-08T00:45:24.344Z,1005.86
2022-12-08T00:45:33.873Z,1005.85
2022-12-08T00:45:43.350Z,1005.84
2022-12-08T00:45:52.751Z,1005.86
2022-12-08T00:46:02.161Z,1005.87
2022-12-08T00:46:11.570Z,1005.86
2022-12-08T00:46:20.965Z,1005.84
2022-12-08T00:46:30.362Z,1005.82
2022-12-08T00:46:39.713Z,1005.86
2022-12-08T00:46:58.508Z,1005.83
2022-12-08T00:47:07.915Z,1005.92
2022-12-08T00:47:22.135Z,1005.83
2022-12-08T00:47:26.804Z,1005.82
2022-12-08T00:47:36.247Z,1005.87
2022-12-08T00:47:45.668Z,1005.85
2022-12-08T00:47:55.076Z,1005.91
2022-12-08T00:48:04.513Z,1005.90
2022-12-08T00:48:13.914Z,1005.83
2022-12-08T00:48:23.434Z,1005.81
2022-12-08T00:48:32.821Z,1005.86
2022-12-08T00:48:42.199Z,1005.85
2022-12-08T00:48:51.651Z,1005.86
2022-12-08T00:49:01.071Z,1005.78
2022-12-08T00:49:10.472Z,1005.85
2022-12-08T00:49:19.900Z,1005.86
2022-12-08T00:49:38.744Z,1005.85
2022-12-08T00:49:48.162Z,1005.81
2022-12-08T00:49:57.596Z,1005.86
2022-12-08T00:50:07.269Z,1005.86
2022-12-08T00:50:16.427Z,1005.95
2022-12-08T00:50:25.845Z,1005.90
2022-12-08T00:50:35.268Z,1005.91
2022-12-08T00:50:44.733Z,1005.89
2022-12-08T00:50:54.137Z,1005.88
2022-12-08T00:51:03.561Z,1005.86
2022-12-08T00:51:12.949Z,1005.85
2022-12-08T00:51:22.347Z,1005.95
2022-12-08T00:51:31.735Z,1005.85
2022-12-08T00:51:41.151Z,1005.86
2022-12-08T00:51:50.576Z,1005.89
2022-12-08T00:51:59.982Z,1005.89
2022-12-08T00:52:18.761Z,1005.84
2022-12-08T00:52:28.173Z,1005.83
2022-12-08T00:52:37.592Z,1005.87
2022-12-08T00:52:47.012Z,1005.89
2022-12-08T00:52:56.439Z,1005.83
2022-12-08T00:53:05.836Z,1005.90
2022-12-08T00:53:15.210Z,1005.89
2022-12-08T00:53:24.595Z,1005.86
2022-12-08T00:53:33.996Z,1005.85
2022-12-08T00:53:43.418Z,1005.89
2022-12-08T00:53:52.808Z,1005.89
2022-12-08T00:54:02.220Z,1005.94
2022-12-08T00:54:11.620Z,1005.81
2022-12-08T00:54:21.018Z,1005.90
2022-12-08T00:54:30.423Z,1005.85
2022-12-08T00:54:39.855Z,1005.92
2022-12-08T00:54:58.610Z,1005.92
2022-12-08T00:55:08.020Z,1005.90
2022-12-08T00:55:17.428Z,1005.91
2022-12-08T00:55:26.866Z,1005.90
2022-12-08T00:55:36.553Z,1005.87
2022-12-08T00:55:45.941Z,1005.93
2022-12-08T00:55:55.348Z,1005.89
2022-12-08T00:56:04.820Z,1005.89
2022-12-08T00:56:14.249Z,1005.91
2022-12-08T00:56:23.664Z,1005.88
2022-12-08T00:56:33.075Z,1005.93
2022-12-08T00:56:42.473Z,1005.85
2022-12-08T00:56:51.955Z,1005.87
2022-12-08T00:57:01.388Z,1005.89
2022-12-08T00:57:10.767Z,1005.91
2022-12-08T00:57:20.157Z,1005.96
2022-12-08T00:57:29.546Z,1005.86
2022-12-08T00:57:48.315Z,1005.90
2022-12-08T00:57:57.747Z,1005.90
2022-12-08T00:58:07.145Z,1005.93
2022-12-08T00:58:16.523Z,1005.93
2022-12-08T00:58:25.900Z,1005.92
2022-12-08T00:58:35.287Z,1005.90
2022-12-08T00:58:44.691Z,1005.88
2022-12-08T00:58:54.104Z,1005.94
2022-12-08T00:59:03.514Z,1005.85
2022-12-08T00:59:12.909Z,1005.95
2022-12-08T00:59:22.290Z,1005.98
2022-12-08T00:59:31.676Z,1005.95
2022-12-08T00:59:41.057Z,1005.86
2022-12-08T00:59:50.483Z,1005.83
2022-12-08T01:00:00.040Z,1005.88
2022-12-08T01:00:18.775Z,1005.88
2022-12-08T01:00:28.169Z,1005.86
2022-12-08T01:00:37.616Z,1005.84
2022-12-08T01:00:47.115Z,1005.85
2022-12-08T01:00:56.497Z,1005.88
2022-12-08T01:01:05.879Z,1005.89
2022-12-08T01:01:15.336Z,1005.85
2022-12-08T01:01:24.761Z,1005.85
2022-12-08T01:01:34.205Z,1005.86
2022-12-08T01:01:43.583Z,1005.84
2022-12-08T01:01:52.851Z,1005.87
2022-12-08T01:02:02.259Z,1005.87
2022-12-08T01:02:11.651Z,1005.85
2022-12-08T01:02:21.064Z,1005.84
2022-12-08T01:02:30.466Z,1005.84
2022-12-08T01:02:39.863Z,1005.86
2022-12-08T01:02:58.744Z,1005.81
2022-12-08T01:03:08.143Z,1005.84
2022-12-08T01:03:17.623Z,1005.85
2022-12-08T01:03:26.918Z,1005.77
2022-12-08T01:03:36.378Z,1005.83
2022-12-08T01:03:45.774Z,1005.84
2022-12-08T01:03:55.084Z,1005.86
2022-12-08T01:04:04.503Z,1005.77
2022-12-08T01:04:13.921Z,1005.85
2022-12-08T01:04:23.341Z,1005.82
2022-12-08T01:04:32.762Z,1005.78
2022-12-08T01:04:42.147Z,1005.81
2022-12-08T01:04:51.541Z,1005.82
2022-12-08T01:05:00.921Z,1005.76
2022-12-08T01:05:10.324Z,1005.80
2022-12-08T01:05:19.739Z,1005.81
2022-12-08T01:05:38.850Z,1005.80
2022-12-08T01:05:48.230Z,1005.83
2022-12-08T01:05:57.626Z,1005.72
2022-12-08T01:06:07.037Z,1005.72
2022-12-08T01:06:16.427Z,1005.71
2022-12-08T01:06:25.826Z,1005.74
2022-12-08T01:06:35.212Z,1005.66
2022-12-08T01:06:44.611Z,1005.71
2022-12-08T01:06:54.066Z,1005.72
2022-12-08T01:07:03.464Z,1005.87
2022-12-08T01:07:12.874Z,1005.72
2022-12-08T01:07:22.268Z,1005.79
2022-12-08T01:07:31.657Z,1005.70
2022-12-08T01:07:41.120Z,1005.68
2022-12-08T01:07:50.524Z,1005.73
2022-12-08T01:07:59.965Z,1005.77
2022-12-08T01:08:18.839Z,1005.82
2022-12-08T01:08:28.193Z,1005.73
2022-12-08T01:08:37.564Z,1005.82
2022-12-08T01:08:46.982Z,1005.71
2022-12-08T01:08:56.385Z,1005.72
2022-12-08T01:09:05.811Z,1005.72
2022-12-08T01:09:15.262Z,1005.82
2022-12-08T01:09:24.669Z,1005.86
2022-12-08T01:09:34.073Z,1005.78
2022-12-08T01:09:43.512Z,1005.78
2022-12-08T01:09:52.873Z,1005.84
2022-12-08T01:10:02.646Z,1005.84
2022-12-08T01:10:11.666Z,1005.78
2022-12-08T01:10:21.069Z,1005.79
2022-12-08T01:10:30.459Z,1005.74
2022-12-08T01:10:39.907Z,1005.80
2022-12-08T01:10:58.721Z,1005.76
2022-12-08T01:11:08.134Z,1005.84
2022-12-08T01:11:17.530Z,1005.74
2022-12-08T01:11:26.936Z,1005.72
2022-12-08T01:11:36.344Z,1005.84
2022-12-08T01:11:45.750Z,1005.82
2022-12-08T01:11:55.163Z,1005.77
2022-12-08T01:12:04.609Z,1005.78
2022-12-08T01:12:14.028Z,1005.85
2022-12-08T01:12:23.502Z,1005.88
2022-12-08T01:12:32.894Z,1005.81
2022-12-08T01:12:42.308Z,1005.84
2022-12-08T01:12:51.762Z,1005.81
2022-12-08T01:13:01.159Z,1005.80
2022-12-08T01:13:10.549Z,1005.85
2022-12-08T01:13:19.953Z,1005.84
2022-12-08T01:13:38.766Z,1005.87
2022-12-08T01:13:48.169Z,1005.86
2022-12-08T01:13:57.586Z,1005.85
2022-12-08T01:14:07.005Z,1005.82
2022-12-08T01:14:16.404Z,1005.83
2022-12-08T01:14:25.815Z,1005.85
2022-12-08T01:14:35.219Z,1005.85
2022-12-08T01:14:44.629Z,1005.87
2022-12-08T01:14:55.898Z,1005.84
2022-12-08T01:15:06.367Z,1005.82
2022-12-08T01:15:15.755Z,1005.91
2022-12-08T01:15:25.159Z,1005.86
2022-12-08T01:15:34.594Z,1005.93
2022-12-08T01:15:44.004Z,1005.90
2022-12-08T01:15:53.392Z,1005.84
2022-12-08T01:16:02.798Z,1005.85
2022-12-08T01:16:12.204Z,1005.89
2022-12-08T01:16:21.679Z,1005.79
2022-12-08T01:16:31.099Z,1005.92
2022-12-08T01:16:40.502Z,1005.85
2022-12-08T01:16:49.940Z,1005.91
2022-12-08T01:17:08.716Z,1005.88
2022-12-08T01:17:18.021Z,1005.88
2022-12-08T01:17:27.411Z,1005.88
2022-12-08T01:17:36.812Z,1005.91
2022-12-08T01:17:46.318Z,1005.82
2022-12-08T01:17:55.734Z,1005.75
2022-12-08T01:18:05.129Z,1005.85
2022-12-08T01:18:14.530Z,1005.81
2022-12-08T01:18:23.919Z,1005.89
2022-12-08T01:18:33.333Z,1005.87
2022-12-08T01:18:42.726Z,1005.80
2022-12-08T01:18:52.246Z,1005.84
2022-12-08T01:19:01.665Z,1005.91
2022-12-08T01:19:11.116Z,1005.81
2022-12-08T01:19:20.514Z,1005.82
2022-12-08T01:19:29.909Z,1005.90
2022-12-08T01:19:48.742Z,1005.86
2022-12-08T01:19:58.143Z,1005.88
2022-12-08T01:20:07.739Z,1005.85
2022-12-08T01:20:16.981Z,1005.83
2022-12-08T01:20:26.371Z,1005.90
2022-12-08T01:20:35.791Z,1005.86
2022-12-08T01:20:45.209Z,1005.90
2022-12-08T01:20:54.612Z,1005.84
2022-12-08T01:21:04.003Z,1005.83
2022-12-08T01:21:13.415Z,1005.83
2022-12-08T01:21:22.811Z,1005.81
2022-12-08T01:21:32.226Z,1005.85
2022-12-08T01:21:41.651Z,1005.91
2022-12-08T01:21:51.038Z,1005.85
2022-12-08T01:22:00.425Z,1005.92
2022-12-08T01:22:09.847Z,1005.84
2022-12-08T01:22:28.685Z,1005.78
2022-12-08T01:22:38.080Z,1005.84
2022-12-08T01:22:47.481Z,1005.92
2022-12-08T01:22:56.903Z,1005.84
2022-12-08T01:23:06.303Z,1005.89
2022-12-08T01:23:15.762Z,1005.85
2022-12-08T01:23:25.159Z,1005.81
2022-12-08T01:23:34.566Z,1005.81
2022-12-08T01:23:43.966Z,1005.84
2022-12-08T01:23:53.384Z,1005.83
2022-12-08T01:24:02.799Z,1005.77
2022-12-08T01:24:12.193Z,1005.84
2022-12-08T01:24:21.569Z,1005.80
2022-12-08T01:24:30.971Z,1005.80
2022-12-08T01:24:40.375Z,1005.79
2022-12-08T01:24:49.785Z,1005.81
2022-12-08T01:25:08.584Z,1005.74
2022-12-08T01:25:17.963Z,1005.81
2022-12-08T01:25:27.338Z,1005.76
2022-12-08T01:25:36.769Z,1005.80
2022-12-08T01:25:46.147Z,1005.73
2022-12-08T01:25:55.554Z,1005.65
2022-12-08T01:26:05.051Z,1005.73
2022-12-08T01:26:14.435Z,1005.73
2022-12-08T01:26:23.870Z,1005.75
2022-12-08T01:26:33.255Z,1005.73
2022-12-08T01:26:42.650Z,1005.71
2022-12-08T01:26:52.061Z,1005.74
2022-12-08T01:27:01.465Z,1005.70
2022-12-08T01:27:10.882Z,1005.72
2022-12-08T01:27:20.297Z,1005.70
2022-12-08T01:27:29.699Z,1005.65
2022-12-08T01:27:48.519Z,1005.73
2022-12-08T01:27:57.941Z,1005.68
2022-12-08T01:28:07.341Z,1005.68
2022-12-08T01:28:16.754Z,1005.66
2022-12-08T01:28:26.158Z,1005.60
2022-12-08T01:28:35.558Z,1005.68
2022-12-08T01:28:44.988Z,1005.68
2022-12-08T01:28:54.394Z,1005.67
2022-12-08T01:29:03.820Z,1005.64
2022-12-08T01:29:13.240Z,1005.68
2022-12-08T01:29:22.654Z,1005.67
2022-12-08T01:29:32.217Z,1005.66
2022-12-08T01:29:41.600Z,1005.62
2022-12-08T01:29:50.990Z,1005.72
2022-12-08T01:30:00.513Z,1005.64
2022-12-08T01:30:09.788Z,1005.69
2022-12-08T01:30:28.768Z,1005.69
2022-12-08T01:30:38.202Z,1005.68
2022-12-08T01:30:47.598Z,1005.68
2022-12-08T01:30:56.963Z,1005.68
2022-12-08T01:31:06.509Z,1005.69
2022-12-08T01:31:15.869Z,1005.65
2022-12-08T01:31:25.288Z,1005.69
2022-12-08T01:31:34.638Z,1005.69
2022-12-08T01:31:44.022Z,1005.62
2022-12-08T01:31:53.436Z,1005.60
2022-12-08T01:32:02.835Z,1005.63
2022-12-08T01:32:12.252Z,1005.64
2022-12-08T01:32:21.666Z,1005.65
2022-12-08T01:32:31.030Z,1005.67
2022-12-08T01:32:40.439Z,1005.63
2022-12-08T01:32:49.835Z,1005.69
2022-12-08T01:33:08.669Z,1005.65
2022-12-08T01:33:18.135Z,1005.71
2022-12-08T01:33:27.574Z,1005.66
2022-12-08T01:33:37.035Z,1005.66
2022-12-08T01:33:46.462Z,1005.68
2022-12-08T01:33:55.881Z,1005.69
2022-12-08T01:34:05.286Z,1005.70
2022-12-08T01:34:14.709Z,1005.62
2022-12-08T01:34:24.128Z,1005.65
2022-12-08T01:34:33.527Z,1005.63
2022-12-08T01:34:42.981Z,1005.63
2022-12-08T01:34:52.380Z,1005.64
2022-12-08T01:35:01.793Z,1005.66
2022-12-08T01:35:11.201Z,1005.71
2022-12-08T01:35:20.742Z,1005.62
2022-12-08T01:35:30.148Z,1005.63
2022-12-08T01:35:39.542Z,1005.64
2022-12-08T01:35:58.437Z,1005.66
2022-12-08T01:36:07.813Z,1005.62
2022-12-08T01:36:17.222Z,1005.63
2022-12-08T01:36:26.610Z,1005.63
2022-12-08T01:36:36.039Z,1005.70
2022-12-08T01:36:45.459Z,1005.68
2022-12-08T01:36:57.917Z,1005.63
2022-12-08T01:37:04.879Z,1005.69
2022-12-08T01:37:14.313Z,1005.73
2022-12-08T01:37:23.718Z,1005.65
2022-12-08T01:37:33.127Z,1005.71
2022-12-08T01:37:42.531Z,1005.61
2022-12-08T01:37:51.941Z,1005.68
2022-12-08T01:38:01.536Z,1005.67
2022-12-08T01:38:10.965Z,1005.62
2022-12-08T01:38:20.348Z,1005.68
2022-12-08T01:38:29.771Z,1005.68
2022-12-08T01:38:48.605Z,1005.68
2022-12-08T01:38:58.006Z,1005.67
2022-12-08T01:39:07.416Z,1005.66
2022-12-08T01:39:16.871Z,1005.66
2022-12-08T01:39:26.308Z,1005.66
2022-12-08T01:39:35.743Z,1005.70
2022-12-08T01:39:45.163Z,1005.71
2022-12-08T01:39:54.613Z,1005.71
2022-12-08T01:40:04.233Z,1005.64
2022-12-08T01:40:13.423Z,1005.73
2022-12-08T01:40:22.851Z,1005.68
2022-12-08T01:40:32.259Z,1005.68
2022-12-08T01:40:41.677Z,1005.61
2022-12-08T01:40:51.119Z,1005.65
2022-12-08T01:41:00.529Z,1005.69
2022-12-08T01:41:09.952Z,1005.63
2022-12-08T01:41:28.781Z,1005.69
2022-12-08T01:41:38.211Z,1005.63
2022-12-08T01:41:47.650Z,1005.67
2022-12-08T01:41:57.058Z,1005.69
2022-12-08T01:42:06.463Z,1005.70
2022-12-08T01:42:15.923Z,1005.63
2022-12-08T01:42:25.313Z,1005.69
2022-12-08T01:42:34.728Z,1005.71
2022-12-08T01:42:44.136Z,1005.69
2022-12-08T01:42:53.527Z,1005.69
2022-12-08T01:43:02.926Z,1005.68
2022-12-08T01:43:12.317Z,1005.72
2022-12-08T01:43:21.731Z,1005.68
2022-12-08T01:43:31.195Z,1005.72
2022-12-08T01:43:40.619Z,1005.63
2022-12-08T01:43:50.038Z,1005.65
2022-12-08T01:43:59.460Z,1005.65
2022-12-08T01:44:18.339Z,1005.55
2022-12-08T01:44:27.760Z,1005.68
2022-12-08T01:44:37.198Z,1005.64
2022-12-08T01:44:46.624Z,1005.66
2022-12-08T01:44:56.018Z,1005.59
2022-12-08T01:45:05.429Z,1005.65
2022-12-08T01:45:14.821Z,1005.65
2022-12-08T01:45:24.246Z,1005.65
2022-12-08T01:45:33.662Z,1005.65
2022-12-08T01:45:43.288Z,1005.60
2022-12-08T01:45:52.572Z,1005.66
2022-12-08T01:46:02.010Z,1005.66
2022-12-08T01:46:11.481Z,1005.61
2022-12-08T01:46:20.920Z,1005.62
2022-12-08T01:46:30.301Z,1005.59
2022-12-08T01:46:39.727Z,1005.61
2022-12-08T01:46:58.458Z,1005.58
2022-12-08T01:47:07.902Z,1005.58
2022-12-08T01:47:17.334Z,1005.56
2022-12-08T01:47:26.753Z,1005.57
2022-12-08T01:47:36.388Z,1005.64
2022-12-08T01:47:45.794Z,1005.56
2022-12-08T01:47:55.125Z,1005.56
2022-12-08T01:48:04.595Z,1005.61
2022-12-08T01:48:13.989Z,1005.62
2022-12-08T01:48:23.355Z,1005.61
2022-12-08T01:48:32.699Z,1005.55
2022-12-08T01:48:42.114Z,1005.55
2022-12-08T01:48:51.507Z,1005.58
2022-12-08T01:49:00.933Z,1005.65
2022-12-08T01:49:10.350Z,1005.55
2022-12-08T01:49:19.831Z,1005.57
2022-12-08T01:49:38.678Z,1005.67
2022-12-08T01:49:48.093Z,1005.57
2022-12-08T01:49:57.488Z,1005.64
2022-12-08T01:50:07.209Z,1005.54
2022-12-08T01:50:16.297Z,1005.50
2022-12-08T01:50:25.739Z,1005.56
2022-12-08T01:50:35.128Z,1005.58
2022-12-08T01:50:44.557Z,1005.53
2022-12-08T01:50:54.183Z,1005.52
2022-12-08T01:51:03.606Z,1005.49
2022-12-08T01:51:13.029Z,1005.47
2022-12-08T01:51:22.445Z,1005.48
2022-12-08T01:51:31.872Z,1005.57
2022-12-08T01:51:41.284Z,1005.58
2022-12-08T01:51:50.695Z,1005.51
2022-12-08T01:52:00.132Z,1005.53
2022-12-08T01:52:09.532Z,1005.54
2022-12-08T01:52:28.322Z,1005.60
2022-12-08T01:52:37.732Z,1005.50
2022-12-08T01:52:47.155Z,1005.50
2022-12-08T01:52:56.611Z,1005.53
2022-12-08T01:53:06.010Z,1005.57
2022-12-08T01:53:15.426Z,1005.52
2022-12-08T01:53:24.847Z,1005.50
2022-12-08T01:53:34.279Z,1005.49
2022-12-08T01:53:43.698Z,1005.54
2022-12-08T01:53:53.102Z,1005.48
2022-12-08T01:54:02.530Z,1005.50
2022-12-08T01:54:11.920Z,1005.54
2022-12-08T01:54:21.340Z,1005.56
2022-12-08T01:54:30.757Z,1005.50
2022-12-08T01:54:40.188Z,1005.51
2022-12-08T01:54:49.581Z,1005.47
2022-12-08T01:55:08.428Z,1005.48
2022-12-08T01:55:17.837Z,1005.52
2022-12-08T01:55:27.261Z,1005.51
2022-12-08T01:55:36.671Z,1005.50
2022-12-08T01:55:46.113Z,1005.47
2022-12-08T01:55:55.592Z,1005.52
2022-12-08T01:56:04.941Z,1005.42
2022-12-08T01:56:14.351Z,1005.46
2022-12-08T01:56:23.773Z,1005.47
2022-12-08T01:56:33.182Z,1005.47
2022-12-08T01:56:42.586Z,1005.49
2022-12-08T01:56:51.983Z,1005.53
2022-12-08T01:57:01.419Z,1005.49
2022-12-08T01:57:10.857Z,1005.44
2022-12-08T01:57:20.268Z,1005.44
2022-12-08T01:57:29.692Z,1005.45
2022-12-08T01:57:48.583Z,1005.47
2022-12-08T01:57:57.991Z,1005.45
2022-12-08T01:58:07.400Z,1005.48
2022-12-08T01:58:16.826Z,1005.43
2022-12-08T01:58:26.245Z,1005.48
2022-12-08T01:58:35.661Z,1005.45
2022-12-08T01:58:45.098Z,1005.43
2022-12-08T01:58:54.545Z,1005.43
2022-12-08T01:59:03.945Z,1005.50
2022-12-08T01:59:13.387Z,1005.45
2022-12-08T01:59:22.780Z,1005.48
2022-12-08T01:59:32.184Z,1005.47
2022-12-08T01:59:41.582Z,1005.45
2022-12-08T01:59:50.993Z,1005.47
2022-12-08T02:00:00.391Z,1005.45
2022-12-08T02:00:09.793Z,1005.51
2022-12-08T02:00:28.623Z,1005.45
2022-12-08T02:00:38.018Z,1005.47
2022-12-08T02:00:47.606Z,1005.47
2022-12-08T02:00:57.097Z,1005.44